createdAt,value
2017-07-29T00:01:19.659Z,19.40
2017-07-29T00:03:47.087Z,19.40
2017-07-29T00:06:14.563Z,19.40
2017-07-29T00:08:42.068Z,19.40
2017-07-29T00:11:10.295Z,19.50
2017-07-29T00:13:37.822Z,19.50
2017-07-29T00:16:05.272Z,19.50
2017-07-29T00:18:32.717Z,19.50
2017-07-29T00:21:00.171Z,19.40
2017-07-29T00:23:27.624Z,19.40
2017-07-29T00:25:55.087Z,19.30
2017-07-29T00:28:22.564Z,19.30
2017-07-29T00:30:50.005Z,19.20
2017-07-29T00:33:17.472Z,19.20
2017-07-29T00:35:44.912Z,19.20
2017-07-29T00:38:12.376Z,19.10
2017-07-29T00:40:39.907Z,19.10
2017-07-29T00:43:08.122Z,19.10
2017-07-29T00:45:35.596Z,19.10
2017-07-29T00:48:03.056Z,19.10
2017-07-29T00:50:30.511Z,19.10
2017-07-29T00:52:57.955Z,19.10
2017-07-29T00:55:25.408Z,19.10
2017-07-29T00:57:52.847Z,19.10
2017-07-29T01:00:20.307Z,19.10
2017-07-29T01:02:47.780Z,19.10
2017-07-29T01:05:15.244Z,19.10
2017-07-29T01:07:42.679Z,19.10
2017-07-29T01:10:10.146Z,19.10
2017-07-29T01:12:37.603Z,19.00
2017-07-29T01:15:05.059Z,19.00
2017-07-29T01:17:32.516Z,18.90
2017-07-29T01:19:59.980Z,18.90
2017-07-29T01:22:27.436Z,18.90
2017-07-29T01:24:55.630Z,18.90
2017-07-29T01:27:23.125Z,18.90
2017-07-29T01:29:51.347Z,18.90
2017-07-29T01:32:18.803Z,18.90
2017-07-29T01:34:46.256Z,18.90
2017-07-29T01:37:13.707Z,18.90
2017-07-29T01:39:41.169Z,18.80
2017-07-29T01:42:08.605Z,18.90
2017-07-29T01:44:36.065Z,18.80
2017-07-29T01:47:03.505Z,18.80
2017-07-29T01:49:30.962Z,18.80
2017-07-29T01:51:58.401Z,18.80
2017-07-29T01:54:26.608Z,18.80
2017-07-29T01:56:54.058Z,18.80
2017-07-29T01:59:21.579Z,18.80
2017-07-29T02:01:49.791Z,18.80
2017-07-29T02:04:17.255Z,18.80
2017-07-29T02:06:44.725Z,18.80
2017-07-29T02:09:12.201Z,18.70
2017-07-29T02:11:39.656Z,18.80
2017-07-29T02:14:07.131Z,18.80
2017-07-29T02:16:35.356Z,18.80
2017-07-29T02:19:02.810Z,18.70
2017-07-29T02:21:30.266Z,18.70
2017-07-29T02:23:57.724Z,18.80
2017-07-29T02:26:25.169Z,18.70
2017-07-29T02:28:52.595Z,18.80
2017-07-29T02:31:20.947Z,18.80
2017-07-29T02:33:48.398Z,18.80
2017-07-29T02:36:15.856Z,18.90
2017-07-29T02:38:43.293Z,18.90
2017-07-29T02:41:10.761Z,18.90
2017-07-29T02:43:38.211Z,19.00
2017-07-29T02:46:05.651Z,18.90
2017-07-29T02:48:33.112Z,18.80
2017-07-29T02:51:00.579Z,18.80
2017-07-29T02:53:28.045Z,18.80
2017-07-29T02:55:55.504Z,18.80
2017-07-29T02:58:22.964Z,18.80
2017-07-29T03:00:50.403Z,18.80
2017-07-29T03:03:17.861Z,18.80
2017-07-29T03:05:45.320Z,18.70
2017-07-29T03:08:12.774Z,18.70
2017-07-29T03:10:40.330Z,18.70
2017-07-29T03:13:07.977Z,18.70
2017-07-29T03:15:35.513Z,18.70
2017-07-29T03:18:03.059Z,18.70
2017-07-29T03:20:30.495Z,18.70
2017-07-29T03:22:57.936Z,18.70
2017-07-29T03:25:25.405Z,18.70
2017-07-29T03:27:52.841Z,18.70
2017-07-29T03:30:20.296Z,18.80
2017-07-29T03:32:47.783Z,18.80
2017-07-29T03:35:15.231Z,18.80
2017-07-29T03:37:43.459Z,18.80
2017-07-29T03:40:10.913Z,18.80
2017-07-29T03:42:38.375Z,18.80
2017-07-29T03:45:05.832Z,18.80
2017-07-29T03:47:33.291Z,18.80
2017-07-29T03:50:00.725Z,18.80
2017-07-29T03:52:28.187Z,18.70
2017-07-29T03:54:55.645Z,18.70
2017-07-29T03:57:23.072Z,18.80
2017-07-29T03:59:50.532Z,18.70
2017-07-29T04:02:17.967Z,18.70
2017-07-29T04:04:46.283Z,18.60
2017-07-29T04:07:13.887Z,18.60
2017-07-29T04:09:41.443Z,18.60
2017-07-29T04:12:08.915Z,18.70
2017-07-29T04:14:38.101Z,18.60
2017-07-29T04:17:05.575Z,18.60
2017-07-29T04:19:33.023Z,18.60
2017-07-29T04:22:01.240Z,18.60
2017-07-29T04:24:28.695Z,18.60
2017-07-29T04:26:56.135Z,18.70
2017-07-29T04:29:23.575Z,18.70
2017-07-29T04:31:51.800Z,18.70
2017-07-29T04:34:19.236Z,18.70
2017-07-29T04:36:46.696Z,18.70
2017-07-29T04:39:14.132Z,18.60
2017-07-29T04:41:41.593Z,18.70
2017-07-29T04:44:09.088Z,18.70
2017-07-29T04:46:36.550Z,18.70
2017-07-29T04:49:03.999Z,18.70
2017-07-29T04:51:31.429Z,18.70
2017-07-29T04:53:58.888Z,18.70
2017-07-29T04:56:26.328Z,18.70
2017-07-29T04:58:53.788Z,18.80
2017-07-29T05:01:21.267Z,18.70
2017-07-29T05:03:48.696Z,18.80
2017-07-29T05:06:16.168Z,18.80
2017-07-29T05:08:43.614Z,18.80
2017-07-29T05:11:11.064Z,18.80
2017-07-29T05:13:38.522Z,18.90
2017-07-29T05:16:05.972Z,18.90
2017-07-29T05:18:33.412Z,18.90
2017-07-29T05:21:00.886Z,18.90
2017-07-29T05:23:28.349Z,18.90
2017-07-29T05:25:55.783Z,18.80
2017-07-29T05:28:23.285Z,18.90
2017-07-29T05:30:50.713Z,18.80
2017-07-29T05:33:18.175Z,18.80
2017-07-29T05:35:45.617Z,18.80
2017-07-29T05:38:13.091Z,18.70
2017-07-29T05:40:40.528Z,18.70
2017-07-29T05:43:07.999Z,18.70
2017-07-29T05:45:35.428Z,18.70
2017-07-29T05:48:02.903Z,18.80
2017-07-29T05:50:30.340Z,18.80
2017-07-29T05:52:58.556Z,18.90
2017-07-29T05:55:26.036Z,18.80
2017-07-29T05:57:53.466Z,19.00
2017-07-29T06:00:21.002Z,19.00
2017-07-29T06:02:48.511Z,19.00
2017-07-29T06:05:15.997Z,19.00
2017-07-29T06:07:44.207Z,19.00
2017-07-29T06:10:11.659Z,19.00
2017-07-29T06:12:39.117Z,19.00
2017-07-29T06:15:06.549Z,19.00
2017-07-29T06:17:34.787Z,19.10
2017-07-29T06:20:02.244Z,19.10
2017-07-29T06:22:29.682Z,19.10
2017-07-29T06:24:57.134Z,19.20
2017-07-29T06:27:24.577Z,19.30
2017-07-29T06:29:52.088Z,19.30
2017-07-29T06:32:19.523Z,19.30
2017-07-29T06:34:46.975Z,19.40
2017-07-29T06:37:14.444Z,19.60
2017-07-29T06:39:41.884Z,19.70
2017-07-29T06:42:09.340Z,19.80
2017-07-29T06:44:36.778Z,19.90
2017-07-29T06:47:04.221Z,20.00
2017-07-29T06:49:31.689Z,20.10
2017-07-29T06:51:59.123Z,20.10
2017-07-29T06:54:26.596Z,20.10
2017-07-29T06:56:54.029Z,20.10
2017-07-29T06:59:21.493Z,20.10
2017-07-29T07:01:48.920Z,20.10
2017-07-29T07:04:16.356Z,20.00
2017-07-29T07:06:43.815Z,20.10
2017-07-29T07:09:11.268Z,20.10
2017-07-29T07:11:38.739Z,20.30
2017-07-29T07:14:06.176Z,20.40
2017-07-29T07:16:33.637Z,20.40
2017-07-29T07:19:01.098Z,20.50
2017-07-29T07:21:28.555Z,20.70
2017-07-29T07:23:55.996Z,20.90
2017-07-29T07:26:23.441Z,21.30
2017-07-29T07:28:50.915Z,21.50
2017-07-29T07:31:18.373Z,22.10
2017-07-29T07:33:45.800Z,23.40
2017-07-29T07:36:13.255Z,25.00
2017-07-29T07:38:40.684Z,25.80
2017-07-29T07:41:08.135Z,26.30
2017-07-29T07:43:35.604Z,27.30
2017-07-29T07:46:03.043Z,27.70
2017-07-29T07:48:31.271Z,28.10
2017-07-29T07:50:58.696Z,28.10
2017-07-29T07:53:26.152Z,29.00
2017-07-29T07:55:53.591Z,29.90
2017-07-29T07:58:21.127Z,30.10
2017-07-29T08:00:49.323Z,30.00
2017-07-29T08:03:16.801Z,29.90
2017-07-29T08:05:44.267Z,29.80
2017-07-29T08:08:11.708Z,28.90
2017-07-29T08:10:39.167Z,28.80
2017-07-29T08:13:06.632Z,28.30
2017-07-29T08:15:34.195Z,27.90
2017-07-29T08:18:01.639Z,28.10
2017-07-29T08:20:29.089Z,28.80
2017-07-29T08:22:56.549Z,28.30
2017-07-29T08:25:23.986Z,27.60
2017-07-29T08:27:52.191Z,27.90
2017-07-29T08:30:19.631Z,27.80
2017-07-29T08:32:47.091Z,28.40
2017-07-29T08:35:14.537Z,28.30
2017-07-29T08:37:41.984Z,28.80
2017-07-29T08:40:09.411Z,28.90
2017-07-29T08:42:36.892Z,29.50
2017-07-29T08:45:05.141Z,29.80
2017-07-29T08:47:32.606Z,29.80
2017-07-29T08:50:00.049Z,29.00
2017-07-29T08:52:27.495Z,28.80
2017-07-29T08:54:55.144Z,28.70
2017-07-29T08:57:22.590Z,28.80
2017-07-29T08:59:50.056Z,28.80
2017-07-29T09:02:17.499Z,28.60
2017-07-29T09:04:44.973Z,28.90
2017-07-29T09:07:12.477Z,28.90
2017-07-29T09:09:40.680Z,29.20
2017-07-29T09:12:08.107Z,29.10
2017-07-29T09:14:35.567Z,29.40
2017-07-29T09:17:03.009Z,30.00
2017-07-29T09:19:31.224Z,29.40
2017-07-29T09:21:58.727Z,29.40
2017-07-29T09:24:26.155Z,29.50
2017-07-29T09:26:53.620Z,29.30
2017-07-29T09:29:21.096Z,28.50
2017-07-29T09:31:48.542Z,27.90
2017-07-29T09:34:16.000Z,28.30
2017-07-29T09:36:43.451Z,28.70
2017-07-29T09:39:10.920Z,28.30
2017-07-29T09:41:38.355Z,27.70
2017-07-29T09:44:05.796Z,27.50
2017-07-29T09:46:33.259Z,28.10
2017-07-29T09:49:00.697Z,28.40
2017-07-29T09:51:28.168Z,28.20
2017-07-29T09:53:55.623Z,28.00
2017-07-29T09:56:23.098Z,27.50
2017-07-29T09:58:50.531Z,27.80
2017-07-29T10:01:18.059Z,28.80
2017-07-29T10:03:45.495Z,29.10
2017-07-29T10:06:13.709Z,29.30
2017-07-29T10:08:41.275Z,29.20
2017-07-29T10:11:08.730Z,29.10
2017-07-29T10:13:36.205Z,28.70
2017-07-29T10:16:03.627Z,28.90
2017-07-29T10:18:31.113Z,29.50
2017-07-29T10:20:58.550Z,30.10
2017-07-29T10:23:26.001Z,29.60
2017-07-29T10:25:53.464Z,29.50
2017-07-29T10:28:20.965Z,29.20
2017-07-29T10:30:49.218Z,27.60
2017-07-29T10:33:16.708Z,27.60
2017-07-29T10:35:45.015Z,28.10
2017-07-29T10:38:12.470Z,29.30
2017-07-29T10:40:39.939Z,30.10
2017-07-29T10:43:07.423Z,30.50
2017-07-29T10:45:34.872Z,30.30
2017-07-29T10:48:02.314Z,30.50
2017-07-29T10:50:29.775Z,29.80
2017-07-29T10:52:57.213Z,28.90
2017-07-29T10:55:24.659Z,28.60
2017-07-29T10:57:52.139Z,28.70
2017-07-29T11:00:19.695Z,29.10
2017-07-29T11:02:47.207Z,28.90
2017-07-29T11:05:15.407Z,29.70
2017-07-29T11:07:42.881Z,29.70
2017-07-29T11:10:10.291Z,29.80
2017-07-29T11:12:37.821Z,30.00
2017-07-29T11:15:05.271Z,30.10
2017-07-29T11:17:32.780Z,30.00
2017-07-29T11:20:00.236Z,30.30
2017-07-29T11:22:27.659Z,30.70
2017-07-29T11:24:55.922Z,31.20
2017-07-29T11:27:23.357Z,31.20
2017-07-29T11:29:50.851Z,30.80
2017-07-29T11:32:18.312Z,30.40
2017-07-29T11:34:45.885Z,30.00
2017-07-29T11:37:13.360Z,30.00
2017-07-29T11:39:40.840Z,30.10
2017-07-29T11:42:08.308Z,30.30
2017-07-29T11:44:35.755Z,30.70
2017-07-29T11:47:03.195Z,31.40
2017-07-29T11:49:30.652Z,31.40
2017-07-29T11:51:58.096Z,31.20
2017-07-29T11:54:25.579Z,31.20
2017-07-29T11:56:53.059Z,31.50
2017-07-29T11:59:20.516Z,31.40
2017-07-29T12:01:48.748Z,31.10
2017-07-29T12:04:16.201Z,31.10
2017-07-29T12:06:43.644Z,31.20
2017-07-29T12:09:11.116Z,31.80
2017-07-29T12:11:38.567Z,31.80
2017-07-29T12:14:06.001Z,31.50
2017-07-29T12:16:33.463Z,31.20
2017-07-29T12:19:00.900Z,30.60
2017-07-29T12:21:28.352Z,30.60
2017-07-29T12:23:55.812Z,30.10
2017-07-29T12:26:23.242Z,29.20
2017-07-29T12:28:50.708Z,29.20
2017-07-29T12:31:18.144Z,29.50
2017-07-29T12:33:45.599Z,29.50
2017-07-29T12:36:13.044Z,29.50
2017-07-29T12:38:40.516Z,29.60
2017-07-29T12:41:07.941Z,30.00
2017-07-29T12:43:35.391Z,30.50
2017-07-29T12:46:03.606Z,31.30
2017-07-29T12:48:31.064Z,31.30
2017-07-29T12:50:58.495Z,31.50
2017-07-29T12:53:25.932Z,31.50
2017-07-29T12:55:53.396Z,31.60
2017-07-29T12:58:20.856Z,31.10
2017-07-29T13:00:48.316Z,30.70
2017-07-29T13:03:15.757Z,30.20
2017-07-29T13:05:43.224Z,30.40
2017-07-29T13:08:10.692Z,30.40
2017-07-29T13:10:38.130Z,30.40
2017-07-29T13:13:05.591Z,29.90
2017-07-29T13:15:33.111Z,29.50
2017-07-29T13:18:01.348Z,30.20
2017-07-29T13:20:28.795Z,30.10
2017-07-29T13:22:56.228Z,30.50
2017-07-29T13:25:23.682Z,30.50
2017-07-29T13:27:51.115Z,30.50
2017-07-29T13:30:18.616Z,29.90
2017-07-29T13:32:46.167Z,29.30
2017-07-29T13:35:13.618Z,29.80
2017-07-29T13:37:41.108Z,30.40
2017-07-29T13:40:09.325Z,30.00
2017-07-29T13:42:36.782Z,30.00
2017-07-29T13:45:04.275Z,30.60
2017-07-29T13:47:31.704Z,30.70
2017-07-29T13:49:59.224Z,30.90
2017-07-29T13:52:26.671Z,31.10
2017-07-29T13:54:54.141Z,31.60
2017-07-29T13:57:21.577Z,31.10
2017-07-29T13:59:49.015Z,30.80
2017-07-29T14:02:17.240Z,30.90
2017-07-29T14:04:44.688Z,30.80
2017-07-29T14:07:12.259Z,31.40
2017-07-29T14:09:39.835Z,31.30
2017-07-29T14:12:07.435Z,31.40
2017-07-29T14:14:34.888Z,31.20
2017-07-29T14:17:02.323Z,31.40
2017-07-29T14:19:30.447Z,31.20
2017-07-29T14:21:57.883Z,30.80
2017-07-29T14:24:25.336Z,30.60
2017-07-29T14:26:52.773Z,30.60
2017-07-29T14:29:20.232Z,30.70
2017-07-29T14:31:47.692Z,30.70
2017-07-29T14:34:15.124Z,30.60
2017-07-29T14:36:42.570Z,30.70
2017-07-29T14:39:10.797Z,30.50
2017-07-29T14:41:38.241Z,30.50
2017-07-29T14:44:05.706Z,30.50
2017-07-29T14:46:33.192Z,30.70
2017-07-29T14:49:00.721Z,30.50
2017-07-29T14:51:28.190Z,29.90
2017-07-29T14:53:55.642Z,29.30
2017-07-29T14:56:23.080Z,29.00
2017-07-29T14:58:50.541Z,29.00
2017-07-29T15:01:17.977Z,29.00
2017-07-29T15:03:45.444Z,29.10
2017-07-29T15:06:12.918Z,29.00
2017-07-29T15:08:40.855Z,29.00
2017-07-29T15:11:08.384Z,29.80
2017-07-29T15:13:35.866Z,30.40
2017-07-29T15:16:03.307Z,30.50
2017-07-29T15:18:30.777Z,30.80
2017-07-29T15:20:58.234Z,30.90
2017-07-29T15:23:25.695Z,30.90
2017-07-29T15:25:53.151Z,30.50
2017-07-29T15:28:20.609Z,30.00
2017-07-29T15:30:48.089Z,29.90
2017-07-29T15:33:16.284Z,29.90
2017-07-29T15:35:43.778Z,29.90
2017-07-29T15:38:11.218Z,29.60
2017-07-29T15:40:38.669Z,29.00
2017-07-29T15:43:06.139Z,28.70
2017-07-29T15:45:33.816Z,28.70
2017-07-29T15:48:01.269Z,28.70
2017-07-29T15:50:28.711Z,28.80
2017-07-29T15:52:57.010Z,28.80
2017-07-29T15:55:24.566Z,28.70
2017-07-29T15:57:52.020Z,28.70
2017-07-29T16:00:20.265Z,28.80
2017-07-29T16:02:47.703Z,28.80
2017-07-29T16:05:15.152Z,28.70
2017-07-29T16:07:43.196Z,28.50
2017-07-29T16:10:11.498Z,28.50
2017-07-29T16:12:38.970Z,28.40
2017-07-29T16:15:06.444Z,28.40
2017-07-29T16:17:33.908Z,28.40
2017-07-29T16:20:01.361Z,28.50
2017-07-29T16:22:28.820Z,28.50
2017-07-29T16:24:56.301Z,28.60
2017-07-29T16:27:23.728Z,28.60
2017-07-29T16:29:52.037Z,28.60
2017-07-29T16:32:19.477Z,28.60
2017-07-29T16:34:46.962Z,28.60
2017-07-29T16:37:14.404Z,28.60
2017-07-29T16:39:41.966Z,28.40
2017-07-29T16:42:09.408Z,28.40
2017-07-29T16:44:36.957Z,28.30
2017-07-29T16:47:05.169Z,28.20
2017-07-29T16:49:32.618Z,28.20
2017-07-29T16:52:00.164Z,28.10
2017-07-29T16:54:27.624Z,27.90
2017-07-29T16:56:55.240Z,27.70
2017-07-29T16:59:22.687Z,27.70
2017-07-29T17:01:50.936Z,27.70
2017-07-29T17:04:18.400Z,27.60
2017-07-29T17:06:45.823Z,27.70
2017-07-29T17:09:13.335Z,27.60
2017-07-29T17:11:40.776Z,27.60
2017-07-29T17:14:09.003Z,27.50
2017-07-29T17:16:37.412Z,27.50
2017-07-29T17:19:05.655Z,27.40
2017-07-29T17:21:33.108Z,27.40
2017-07-29T17:24:00.534Z,27.30
2017-07-29T17:26:27.995Z,27.30
2017-07-29T17:28:55.445Z,27.30
2017-07-29T17:31:22.893Z,27.20
2017-07-29T17:33:50.353Z,27.20
2017-07-29T17:36:17.856Z,27.20
2017-07-29T17:38:45.300Z,27.20
2017-07-29T17:41:12.745Z,27.20
2017-07-29T17:43:40.210Z,27.20
2017-07-29T17:46:07.775Z,27.20
2017-07-29T17:48:35.213Z,27.10
2017-07-29T17:51:02.687Z,27.10
2017-07-29T17:53:30.909Z,26.90
2017-07-29T17:55:58.402Z,26.90
2017-07-29T17:58:25.840Z,26.90
2017-07-29T18:00:53.306Z,26.80
2017-07-29T18:03:20.782Z,26.90
2017-07-29T18:05:49.026Z,26.80
2017-07-29T18:08:16.492Z,26.80
2017-07-29T18:10:43.983Z,26.70
2017-07-29T18:13:12.210Z,26.60
2017-07-29T18:15:39.672Z,26.60
2017-07-29T18:18:07.201Z,26.50
2017-07-29T18:20:34.637Z,26.50
2017-07-29T18:23:02.095Z,26.50
2017-07-29T18:25:29.535Z,26.40
2017-07-29T18:27:57.018Z,26.40
2017-07-29T18:30:24.469Z,26.40
2017-07-29T18:32:51.910Z,26.40
2017-07-29T18:35:19.396Z,26.40
2017-07-29T18:37:46.860Z,26.30
2017-07-29T18:40:14.424Z,26.30
2017-07-29T18:42:41.947Z,26.30
2017-07-29T18:45:09.425Z,26.20
2017-07-29T18:47:36.864Z,26.20
2017-07-29T18:50:04.375Z,26.20
2017-07-29T18:52:31.803Z,26.20
2017-07-29T18:55:00.014Z,26.10
2017-07-29T18:57:27.498Z,26.10
2017-07-29T18:59:54.956Z,26.00
2017-07-29T19:02:22.410Z,26.00
2017-07-29T19:04:49.860Z,25.90
2017-07-29T19:07:17.332Z,25.90
2017-07-29T19:09:44.788Z,25.80
2017-07-29T19:12:12.233Z,25.80
2017-07-29T19:14:39.688Z,25.80
2017-07-29T19:17:07.123Z,25.70
2017-07-29T19:19:34.604Z,25.60
2017-07-29T19:22:06.016Z,25.50
2017-07-29T19:24:33.465Z,25.40
2017-07-29T19:27:00.931Z,25.30
2017-07-29T19:29:28.385Z,25.40
2017-07-29T19:31:55.881Z,25.50
2017-07-29T19:34:24.079Z,25.30
2017-07-29T19:36:51.541Z,25.30
2017-07-29T19:39:18.971Z,25.30
2017-07-29T19:41:47.232Z,25.20
2017-07-29T19:44:15.486Z,25.20
2017-07-29T19:46:42.928Z,25.20
2017-07-29T19:49:10.414Z,25.10
2017-07-29T19:51:37.876Z,25.10
2017-07-29T19:54:06.079Z,24.80
2017-07-29T19:56:33.543Z,24.80
2017-07-29T19:59:01.000Z,24.80
2017-07-29T20:01:28.450Z,24.90
2017-07-29T20:03:55.902Z,24.80
2017-07-29T20:06:23.390Z,24.90
2017-07-29T20:08:50.835Z,24.80
2017-07-29T20:11:18.273Z,24.70
2017-07-29T20:13:45.763Z,24.60
2017-07-29T20:16:13.214Z,24.50
2017-07-29T20:18:40.675Z,24.40
2017-07-29T20:21:08.107Z,24.40
2017-07-29T20:23:35.563Z,24.30
2017-07-29T20:26:03.005Z,24.20
2017-07-29T20:28:30.484Z,24.10
2017-07-29T20:30:57.946Z,24.20
2017-07-29T20:33:25.382Z,24.10
2017-07-29T20:35:52.893Z,24.20
2017-07-29T20:38:20.366Z,24.20
2017-07-29T20:40:47.820Z,24.20
2017-07-29T20:43:15.271Z,24.40
2017-07-29T20:45:42.757Z,24.40
2017-07-29T20:48:10.319Z,24.30
2017-07-29T20:50:37.822Z,24.30
2017-07-29T20:53:05.276Z,24.20
2017-07-29T20:55:32.715Z,24.10
2017-07-29T20:58:00.963Z,24.10
2017-07-29T21:00:28.516Z,24.10
2017-07-29T21:02:56.113Z,24.00
2017-07-29T21:05:24.176Z,24.00
2017-07-29T21:07:51.608Z,24.00
2017-07-29T21:10:19.065Z,23.90
2017-07-29T21:12:47.299Z,23.80
2017-07-29T21:15:14.776Z,23.80
2017-07-29T21:17:42.267Z,23.80
2017-07-29T21:20:09.725Z,23.80
2017-07-29T21:22:37.202Z,23.80
2017-07-29T21:25:04.649Z,23.70
2017-07-29T21:27:32.145Z,23.70
2017-07-29T21:29:59.613Z,23.70
2017-07-29T21:32:27.185Z,23.70
2017-07-29T21:34:56.136Z,23.70
2017-07-29T21:37:23.604Z,23.70
2017-07-29T21:39:51.035Z,23.70
2017-07-29T21:42:18.483Z,23.80
2017-07-29T21:44:45.953Z,23.80
2017-07-29T21:47:13.615Z,23.80
2017-07-29T21:49:41.175Z,23.90
2017-07-29T21:52:08.648Z,23.80
2017-07-29T21:54:37.327Z,23.60
2017-07-29T21:57:04.758Z,23.50
2017-07-29T21:59:32.213Z,23.60
2017-07-29T22:01:59.664Z,23.60
2017-07-29T22:04:27.114Z,23.70
2017-07-29T22:06:54.561Z,23.70
2017-07-29T22:09:22.015Z,23.60
2017-07-29T22:11:49.477Z,23.50
2017-07-29T22:14:16.919Z,23.40
2017-07-29T22:16:44.411Z,23.40
2017-07-29T22:19:11.840Z,23.40
2017-07-29T22:21:39.299Z,23.30
2017-07-29T22:24:06.749Z,23.30
2017-07-29T22:26:34.200Z,23.20
2017-07-29T22:29:01.688Z,23.20
2017-07-29T22:31:29.136Z,23.10
2017-07-29T22:33:56.588Z,23.10
2017-07-29T22:36:24.048Z,23.10
2017-07-29T22:38:51.503Z,23.00
2017-07-29T22:41:18.939Z,23.00
2017-07-29T22:43:46.408Z,23.00
2017-07-29T22:46:13.865Z,23.00
2017-07-29T22:48:41.295Z,22.90
2017-07-29T22:51:08.815Z,22.90
2017-07-29T22:53:36.252Z,22.70
2017-07-29T22:56:04.477Z,22.70
2017-07-29T22:58:31.935Z,22.60
2017-07-29T23:00:59.368Z,22.70
2017-07-29T23:03:27.194Z,22.70
2017-07-29T23:05:55.403Z,22.60
2017-07-29T23:08:22.868Z,22.60
2017-07-29T23:10:50.315Z,22.50
2017-07-29T23:13:17.812Z,22.60
2017-07-29T23:15:45.271Z,22.40
2017-07-29T23:18:12.711Z,22.40
2017-07-29T23:20:40.167Z,22.20
2017-07-29T23:23:07.603Z,22.20
2017-07-29T23:25:35.056Z,22.30
2017-07-29T23:28:02.513Z,22.30
2017-07-29T23:30:29.961Z,22.30
2017-07-29T23:32:57.417Z,22.20
2017-07-29T23:35:26.007Z,22.30
2017-07-29T23:37:53.469Z,22.30
2017-07-29T23:40:20.908Z,22.20
2017-07-29T23:42:48.358Z,22.10
2017-07-29T23:45:15.806Z,21.90
2017-07-29T23:47:43.241Z,21.80
2017-07-29T23:50:10.699Z,21.80
2017-07-29T23:52:38.162Z,21.70
2017-07-29T23:55:05.633Z,21.70
2017-07-29T23:57:33.143Z,21.80
